sensor_id;sensor_type;location;lat;lon;timestamp;P1;durP1;ratioP1;P2;durP2;ratioP2
17494;SDS011;8864;51.970;4.614;2023-03-12T00:01:12;3.47;;;1.50;;
17494;SDS011;8864;51.970;4.614;2023-03-12T00:03:40;5.18;;;1.92;;
17494;SDS011;8864;51.970;4.614;2023-03-12T00:06:08;4.20;;;1.70;;
17494;SDS011;8864;51.970;4.614;2023-03-12T00:08:35;5.75;;;2.10;;
17494;SDS011;8864;51.970;4.614;2023-03-12T00:11:07;6.03;;;1.70;;
17494;SDS011;8864;51.970;4.614;2023-03-12T00:13:35;3.75;;;1.50;;
17494;SDS011;8864;51.970;4.614;2023-03-12T00:16:04;4.28;;;1.90;;
17494;SDS011;8864;51.970;4.614;2023-03-12T00:18:32;4.13;;;2.13;;
17494;SDS011;8864;51.970;4.614;2023-03-12T00:20:59;2.20;;;1.50;;
17494;SDS011;8864;51.970;4.614;2023-03-12T00:23:26;4.47;;;1.85;;
17494;SDS011;8864;51.970;4.614;2023-03-12T00:25:57;4.88;;;1.85;;
17494;SDS011;8864;51.970;4.614;2023-03-12T00:28:26;3.42;;;1.60;;
17494;SDS011;8864;51.970;4.614;2023-03-12T00:30:53;3.10;;;1.90;;
17494;SDS011;8864;51.970;4.614;2023-03-12T00:33:22;2.97;;;1.77;;
17494;SDS011;8864;51.970;4.614;2023-03-12T00:35:50;3.63;;;1.83;;
17494;SDS011;8864;51.970;4.614;2023-03-12T00:38:17;3.58;;;1.63;;
17494;SDS011;8864;51.970;4.614;2023-03-12T00:40:44;5.57;;;1.98;;
17494;SDS011;8864;51.970;4.614;2023-03-12T00:43:11;4.32;;;2.10;;
17494;SDS011;8864;51.970;4.614;2023-03-12T00:45:39;2.78;;;1.70;;
17494;SDS011;8864;51.970;4.614;2023-03-12T00:48:06;2.95;;;1.60;;
17494;SDS011;8864;51.970;4.614;2023-03-12T00:50:33;3.97;;;1.90;;
17494;SDS011;8864;51.970;4.614;2023-03-12T00:53:00;2.55;;;1.60;;
17494;SDS011;8864;51.970;4.614;2023-03-12T00:55:27;4.68;;;1.77;;
17494;SDS011;8864;51.970;4.614;2023-03-12T00:57:54;4.00;;;1.80;;
17494;SDS011;8864;51.970;4.614;2023-03-12T01:00:21;3.92;;;1.83;;
17494;SDS011;8864;51.970;4.614;2023-03-12T01:02:49;4.18;;;1.83;;
17494;SDS011;8864;51.970;4.614;2023-03-12T01:05:16;4.05;;;1.98;;
17494;SDS011;8864;51.970;4.614;2023-03-12T01:07:43;4.43;;;1.75;;
17494;SDS011;8864;51.970;4.614;2023-03-12T01:10:10;3.60;;;1.80;;
17494;SDS011;8864;51.970;4.614;2023-03-12T01:12:39;3.72;;;2.00;;
17494;SDS011;8864;51.970;4.614;2023-03-12T01:15:06;5.18;;;2.22;;
17494;SDS011;8864;51.970;4.614;2023-03-12T01:17:35;4.40;;;2.08;;
17494;SDS011;8864;51.970;4.614;2023-03-12T01:20:04;9.45;;;1.60;;
17494;SDS011;8864;51.970;4.614;2023-03-12T01:22:32;5.80;;;1.90;;
17494;SDS011;8864;51.970;4.614;2023-03-12T01:25:00;5.38;;;1.70;;
17494;SDS011;8864;51.970;4.614;2023-03-12T01:27:27;3.97;;;1.67;;
17494;SDS011;8864;51.970;4.614;2023-03-12T01:29:54;4.97;;;1.83;;
17494;SDS011;8864;51.970;4.614;2023-03-12T01:32:21;2.45;;;1.40;;
17494;SDS011;8864;51.970;4.614;2023-03-12T01:34:48;2.38;;;1.70;;
17494;SDS011;8864;51.970;4.614;2023-03-12T01:37:16;3.22;;;1.60;;
17494;SDS011;8864;51.970;4.614;2023-03-12T01:39:43;2.88;;;1.63;;
17494;SDS011;8864;51.970;4.614;2023-03-12T01:42:10;2.13;;;1.30;;
17494;SDS011;8864;51.970;4.614;2023-03-12T01:44:47;5.65;;;1.48;;
17494;SDS011;8864;51.970;4.614;2023-03-12T01:47:15;2.47;;;1.33;;
17494;SDS011;8864;51.970;4.614;2023-03-12T01:49:42;5.28;;;1.58;;
17494;SDS011;8864;51.970;4.614;2023-03-12T01:52:11;2.88;;;1.60;;
17494;SDS011;8864;51.970;4.614;2023-03-12T01:54:42;3.75;;;1.42;;
17494;SDS011;8864;51.970;4.614;2023-03-12T01:57:14;2.92;;;1.67;;
17494;SDS011;8864;51.970;4.614;2023-03-12T01:59:46;4.53;;;1.73;;
17494;SDS011;8864;51.970;4.614;2023-03-12T02:02:16;5.18;;;1.60;;
17494;SDS011;8864;51.970;4.614;2023-03-12T02:04:49;3.90;;;2.05;;
17494;SDS011;8864;51.970;4.614;2023-03-12T02:07:20;4.38;;;1.75;;
17494;SDS011;8864;51.970;4.614;2023-03-12T02:09:49;3.88;;;1.75;;
17494;SDS011;8864;51.970;4.614;2023-03-12T02:12:16;4.95;;;1.40;;
17494;SDS011;8864;51.970;4.614;2023-03-12T02:14:43;3.97;;;1.52;;
17494;SDS011;8864;51.970;4.614;2023-03-12T02:17:10;4.07;;;1.73;;
17494;SDS011;8864;51.970;4.614;2023-03-12T02:19:40;2.40;;;1.50;;
17494;SDS011;8864;51.970;4.614;2023-03-12T02:22:12;3.00;;;1.63;;
17494;SDS011;8864;51.970;4.614;2023-03-12T02:24:41;3.05;;;1.50;;
17494;SDS011;8864;51.970;4.614;2023-03-12T02:27:14;3.28;;;1.60;;
17494;SDS011;8864;51.970;4.614;2023-03-12T02:29:43;3.58;;;1.48;;
17494;SDS011;8864;51.970;4.614;2023-03-12T02:32:14;5.05;;;1.60;;
17494;SDS011;8864;51.970;4.614;2023-03-12T02:34:45;4.47;;;1.70;;
17494;SDS011;8864;51.970;4.614;2023-03-12T02:37:12;2.42;;;1.35;;
17494;SDS011;8864;51.970;4.614;2023-03-12T02:39:39;3.42;;;1.63;;
17494;SDS011;8864;51.970;4.614;2023-03-12T02:42:08;4.97;;;1.70;;
17494;SDS011;8864;51.970;4.614;2023-03-12T02:44:36;3.33;;;1.50;;
17494;SDS011;8864;51.970;4.614;2023-03-12T02:47:03;2.90;;;1.30;;
17494;SDS011;8864;51.970;4.614;2023-03-12T02:49:31;3.55;;;1.50;;
17494;SDS011;8864;51.970;4.614;2023-03-12T02:51:59;2.42;;;1.33;;
17494;SDS011;8864;51.970;4.614;2023-03-12T02:54:27;3.13;;;1.55;;
17494;SDS011;8864;51.970;4.614;2023-03-12T02:56:55;3.28;;;1.20;;
17494;SDS011;8864;51.970;4.614;2023-03-12T02:59:22;1.83;;;1.38;;
17494;SDS011;8864;51.970;4.614;2023-03-12T03:01:52;2.80;;;1.48;;
17494;SDS011;8864;51.970;4.614;2023-03-12T03:04:21;5.53;;;1.55;;
17494;SDS011;8864;51.970;4.614;2023-03-12T03:06:48;4.68;;;1.50;;
17494;SDS011;8864;51.970;4.614;2023-03-12T03:09:16;2.35;;;1.20;;
17494;SDS011;8864;51.970;4.614;2023-03-12T03:11:43;3.78;;;1.70;;
17494;SDS011;8864;51.970;4.614;2023-03-12T03:14:10;3.50;;;1.30;;
17494;SDS011;8864;51.970;4.614;2023-03-12T03:16:37;2.80;;;1.42;;
17494;SDS011;8864;51.970;4.614;2023-03-12T03:19:05;5.05;;;1.45;;
17494;SDS011;8864;51.970;4.614;2023-03-12T03:21:32;3.35;;;1.50;;
17494;SDS011;8864;51.970;4.614;2023-03-12T03:23:59;3.55;;;1.48;;
17494;SDS011;8864;51.970;4.614;2023-03-12T03:26:26;4.05;;;1.30;;
17494;SDS011;8864;51.970;4.614;2023-03-12T03:28:53;3.38;;;1.58;;
17494;SDS011;8864;51.970;4.614;2023-03-12T03:31:20;3.90;;;1.70;;
17494;SDS011;8864;51.970;4.614;2023-03-12T03:33:48;7.00;;;1.40;;
17494;SDS011;8864;51.970;4.614;2023-03-12T03:36:16;5.45;;;1.35;;
17494;SDS011;8864;51.970;4.614;2023-03-12T03:38:43;2.85;;;1.45;;
17494;SDS011;8864;51.970;4.614;2023-03-12T03:41:13;3.55;;;1.40;;
17494;SDS011;8864;51.970;4.614;2023-03-12T03:43:41;4.03;;;1.40;;
17494;SDS011;8864;51.970;4.614;2023-03-12T03:46:08;3.15;;;1.20;;
17494;SDS011;8864;51.970;4.614;2023-03-12T03:48:36;4.93;;;1.48;;
17494;SDS011;8864;51.970;4.614;2023-03-12T03:51:04;6.15;;;1.35;;
17494;SDS011;8864;51.970;4.614;2023-03-12T03:53:34;3.63;;;1.60;;
17494;SDS011;8864;51.970;4.614;2023-03-12T03:56:04;3.63;;;1.60;;
17494;SDS011;8864;51.970;4.614;2023-03-12T03:58:32;2.25;;;1.20;;
17494;SDS011;8864;51.970;4.614;2023-03-12T04:00:59;8.35;;;1.30;;
17494;SDS011;8864;51.970;4.614;2023-03-12T04:03:26;2.40;;;1.35;;
17494;SDS011;8864;51.970;4.614;2023-03-12T04:05:53;3.08;;;1.40;;
17494;SDS011;8864;51.970;4.614;2023-03-12T04:08:21;3.85;;;1.55;;
17494;SDS011;8864;51.970;4.614;2023-03-12T04:10:49;2.20;;;1.23;;
17494;SDS011;8864;51.970;4.614;2023-03-12T04:13:17;5.25;;;1.27;;
17494;SDS011;8864;51.970;4.614;2023-03-12T04:15:47;3.03;;;1.38;;
17494;SDS011;8864;51.970;4.614;2023-03-12T04:18:15;4.30;;;1.60;;
17494;SDS011;8864;51.970;4.614;2023-03-12T04:20:43;3.65;;;1.50;;
17494;SDS011;8864;51.970;4.614;2023-03-12T04:23:10;2.10;;;1.10;;
17494;SDS011;8864;51.970;4.614;2023-03-12T04:25:37;4.28;;;1.30;;
17494;SDS011;8864;51.970;4.614;2023-03-12T04:28:06;3.45;;;1.33;;
17494;SDS011;8864;51.970;4.614;2023-03-12T04:30:33;2.20;;;1.27;;
17494;SDS011;8864;51.970;4.614;2023-03-12T04:33:02;3.78;;;1.38;;
17494;SDS011;8864;51.970;4.614;2023-03-12T04:35:29;4.70;;;1.35;;
17494;SDS011;8864;51.970;4.614;2023-03-12T04:37:56;2.22;;;1.20;;
17494;SDS011;8864;51.970;4.614;2023-03-12T04:40:23;2.42;;;1.27;;
17494;SDS011;8864;51.970;4.614;2023-03-12T04:42:50;4.47;;;1.58;;
17494;SDS011;8864;51.970;4.614;2023-03-12T04:45:18;4.13;;;1.60;;
17494;SDS011;8864;51.970;4.614;2023-03-12T04:47:45;2.05;;;1.30;;
17494;SDS011;8864;51.970;4.614;2023-03-12T04:50:13;3.15;;;1.25;;
17494;SDS011;8864;51.970;4.614;2023-03-12T04:52:40;3.55;;;1.30;;
17494;SDS011;8864;51.970;4.614;2023-03-12T04:55:07;3.45;;;1.55;;
17494;SDS011;8864;51.970;4.614;2023-03-12T04:57:34;4.68;;;1.40;;
17494;SDS011;8864;51.970;4.614;2023-03-12T05:00:02;3.88;;;1.48;;
17494;SDS011;8864;51.970;4.614;2023-03-12T05:02:36;3.50;;;1.30;;
17494;SDS011;8864;51.970;4.614;2023-03-12T05:05:03;2.97;;;1.52;;
17494;SDS011;8864;51.970;4.614;2023-03-12T05:07:31;2.65;;;1.10;;
17494;SDS011;8864;51.970;4.614;2023-03-12T05:09:58;3.00;;;1.30;;
17494;SDS011;8864;51.970;4.614;2023-03-12T05:12:25;3.88;;;1.55;;
17494;SDS011;8864;51.970;4.614;2023-03-12T05:14:52;3.67;;;1.40;;
17494;SDS011;8864;51.970;4.614;2023-03-12T05:17:19;3.42;;;1.50;;
17494;SDS011;8864;51.970;4.614;2023-03-12T05:19:47;2.45;;;1.55;;
17494;SDS011;8864;51.970;4.614;2023-03-12T05:22:14;2.95;;;1.25;;
17494;SDS011;8864;51.970;4.614;2023-03-12T05:24:41;2.58;;;1.38;;
17494;SDS011;8864;51.970;4.614;2023-03-12T05:27:08;3.92;;;1.80;;
17494;SDS011;8864;51.970;4.614;2023-03-12T05:29:35;3.80;;;1.50;;
17494;SDS011;8864;51.970;4.614;2023-03-12T05:32:03;2.75;;;1.17;;
17494;SDS011;8864;51.970;4.614;2023-03-12T05:34:31;2.88;;;1.48;;
17494;SDS011;8864;51.970;4.614;2023-03-12T05:37:00;2.10;;;1.20;;
17494;SDS011;8864;51.970;4.614;2023-03-12T05:39:27;2.60;;;1.40;;
17494;SDS011;8864;51.970;4.614;2023-03-12T05:41:54;3.80;;;1.40;;
17494;SDS011;8864;51.970;4.614;2023-03-12T05:44:22;4.05;;;1.50;;
17494;SDS011;8864;51.970;4.614;2023-03-12T05:46:49;2.00;;;1.38;;
17494;SDS011;8864;51.970;4.614;2023-03-12T05:49:17;2.40;;;1.40;;
17494;SDS011;8864;51.970;4.614;2023-03-12T05:51:45;3.30;;;1.70;;
17494;SDS011;8864;51.970;4.614;2023-03-12T05:54:13;2.75;;;1.50;;
17494;SDS011;8864;51.970;4.614;2023-03-12T05:56:40;4.22;;;1.67;;
17494;SDS011;8864;51.970;4.614;2023-03-12T05:59:08;3.13;;;1.40;;
17494;SDS011;8864;51.970;4.614;2023-03-12T06:01:35;4.38;;;1.35;;
17494;SDS011;8864;51.970;4.614;2023-03-12T06:04:04;2.83;;;1.27;;
17494;SDS011;8864;51.970;4.614;2023-03-12T06:06:31;2.85;;;1.40;;
17494;SDS011;8864;51.970;4.614;2023-03-12T06:08:59;3.58;;;1.27;;
17494;SDS011;8864;51.970;4.614;2023-03-12T06:11:29;3.05;;;1.20;;
17494;SDS011;8864;51.970;4.614;2023-03-12T06:13:57;4.35;;;1.55;;
17494;SDS011;8864;51.970;4.614;2023-03-12T06:16:24;2.45;;;1.33;;
17494;SDS011;8864;51.970;4.614;2023-03-12T06:18:53;3.00;;;1.33;;
17494;SDS011;8864;51.970;4.614;2023-03-12T06:21:22;3.28;;;1.40;;
17494;SDS011;8864;51.970;4.614;2023-03-12T06:23:51;2.45;;;1.30;;
17494;SDS011;8864;51.970;4.614;2023-03-12T06:26:19;2.05;;;1.10;;
17494;SDS011;8864;51.970;4.614;2023-03-12T06:28:49;2.25;;;1.10;;
17494;SDS011;8864;51.970;4.614;2023-03-12T06:31:17;2.78;;;1.33;;
17494;SDS011;8864;51.970;4.614;2023-03-12T06:33:45;2.35;;;1.38;;
17494;SDS011;8864;51.970;4.614;2023-03-12T06:36:12;1.88;;;1.20;;
17494;SDS011;8864;51.970;4.614;2023-03-12T06:38:39;3.17;;;1.52;;
17494;SDS011;8864;51.970;4.614;2023-03-12T06:41:07;2.97;;;1.45;;
17494;SDS011;8864;51.970;4.614;2023-03-12T06:43:35;2.88;;;1.15;;
17494;SDS011;8864;51.970;4.614;2023-03-12T06:46:06;4.93;;;1.55;;
17494;SDS011;8864;51.970;4.614;2023-03-12T06:48:34;4.13;;;1.55;;
17494;SDS011;8864;51.970;4.614;2023-03-12T06:51:05;6.32;;;1.50;;
17494;SDS011;8864;51.970;4.614;2023-03-12T06:53:33;10.18;;;1.60;;
17494;SDS011;8864;51.970;4.614;2023-03-12T06:56:00;2.78;;;1.52;;
17494;SDS011;8864;51.970;4.614;2023-03-12T06:58:27;3.35;;;1.48;;
17494;SDS011;8864;51.970;4.614;2023-03-12T07:00:54;4.10;;;1.40;;
17494;SDS011;8864;51.970;4.614;2023-03-12T07:03:23;10.00;;;1.40;;
17494;SDS011;8864;51.970;4.614;2023-03-12T07:05:50;4.35;;;1.27;;
17494;SDS011;8864;51.970;4.614;2023-03-12T07:08:17;3.95;;;1.50;;
17494;SDS011;8864;51.970;4.614;2023-03-12T07:10:44;5.53;;;1.73;;
17494;SDS011;8864;51.970;4.614;2023-03-12T07:13:11;3.17;;;1.40;;
17494;SDS011;8864;51.970;4.614;2023-03-12T07:15:38;4.57;;;1.67;;
17494;SDS011;8864;51.970;4.614;2023-03-12T07:18:06;4.45;;;1.40;;
17494;SDS011;8864;51.970;4.614;2023-03-12T07:20:36;2.72;;;1.30;;
17494;SDS011;8864;51.970;4.614;2023-03-12T07:23:04;4.68;;;1.25;;
17494;SDS011;8864;51.970;4.614;2023-03-12T07:25:33;2.60;;;1.35;;
17494;SDS011;8864;51.970;4.614;2023-03-12T07:28:00;3.63;;;1.50;;
17494;SDS011;8864;51.970;4.614;2023-03-12T07:30:27;4.20;;;1.40;;
17494;SDS011;8864;51.970;4.614;2023-03-12T07:32:57;3.10;;;1.40;;
17494;SDS011;8864;51.970;4.614;2023-03-12T07:35:24;4.40;;;1.35;;
17494;SDS011;8864;51.970;4.614;2023-03-12T07:37:53;4.55;;;1.45;;
17494;SDS011;8864;51.970;4.614;2023-03-12T07:40:20;2.78;;;1.30;;
17494;SDS011;8864;51.970;4.614;2023-03-12T07:42:48;4.60;;;1.52;;
17494;SDS011;8864;51.970;4.614;2023-03-12T07:45:16;2.30;;;1.42;;
17494;SDS011;8864;51.970;4.614;2023-03-12T07:47:43;2.88;;;1.67;;
17494;SDS011;8864;51.970;4.614;2023-03-12T07:50:10;4.90;;;1.55;;
17494;SDS011;8864;51.970;4.614;2023-03-12T07:52:38;3.88;;;1.70;;
17494;SDS011;8864;51.970;4.614;2023-03-12T07:55:07;3.60;;;1.50;;
17494;SDS011;8864;51.970;4.614;2023-03-12T07:57:35;2.20;;;1.15;;
17494;SDS011;8864;51.970;4.614;2023-03-12T08:00:03;2.45;;;1.45;;
17494;SDS011;8864;51.970;4.614;2023-03-12T08:02:31;3.97;;;1.55;;
17494;SDS011;8864;51.970;4.614;2023-03-12T08:04:58;2.85;;;1.52;;
17494;SDS011;8864;51.970;4.614;2023-03-12T08:07:25;2.95;;;1.48;;
17494;SDS011;8864;51.970;4.614;2023-03-12T08:09:56;5.40;;;1.85;;
17494;SDS011;8864;51.970;4.614;2023-03-12T08:12:24;4.88;;;1.45;;
17494;SDS011;8864;51.970;4.614;2023-03-12T08:14:51;3.42;;;1.55;;
17494;SDS011;8864;51.970;4.614;2023-03-12T08:17:18;2.03;;;1.58;;
17494;SDS011;8864;51.970;4.614;2023-03-12T08:19:45;3.78;;;1.45;;
17494;SDS011;8864;51.970;4.614;2023-03-12T08:22:12;3.28;;;1.65;;
17494;SDS011;8864;51.970;4.614;2023-03-12T08:24:39;3.08;;;1.63;;
17494;SDS011;8864;51.970;4.614;2023-03-12T08:27:06;4.30;;;1.70;;
17494;SDS011;8864;51.970;4.614;2023-03-12T08:29:35;4.82;;;1.77;;
17494;SDS011;8864;51.970;4.614;2023-03-12T08:32:02;4.22;;;1.58;;
17494;SDS011;8864;51.970;4.614;2023-03-12T08:34:29;2.67;;;1.63;;
17494;SDS011;8864;51.970;4.614;2023-03-12T08:36:56;2.80;;;1.70;;
17494;SDS011;8864;51.970;4.614;2023-03-12T08:39:24;4.30;;;2.00;;
17494;SDS011;8864;51.970;4.614;2023-03-12T08:41:50;3.33;;;1.70;;
17494;SDS011;8864;51.970;4.614;2023-03-12T08:44:19;4.25;;;1.77;;
17494;SDS011;8864;51.970;4.614;2023-03-12T08:46:47;3.75;;;2.17;;
17494;SDS011;8864;51.970;4.614;2023-03-12T08:49:14;4.28;;;2.28;;
17494;SDS011;8864;51.970;4.614;2023-03-12T08:51:41;3.92;;;2.30;;
17494;SDS011;8864;51.970;4.614;2023-03-12T08:54:09;3.30;;;2.05;;
17494;SDS011;8864;51.970;4.614;2023-03-12T08:56:36;4.07;;;2.25;;
17494;SDS011;8864;51.970;4.614;2023-03-12T08:59:07;4.40;;;2.33;;
17494;SDS011;8864;51.970;4.614;2023-03-12T09:01:34;3.15;;;2.10;;
17494;SDS011;8864;51.970;4.614;2023-03-12T09:04:02;4.55;;;2.63;;
17494;SDS011;8864;51.970;4.614;2023-03-12T09:06:30;4.43;;;2.75;;
17494;SDS011;8864;51.970;4.614;2023-03-12T09:08:59;6.97;;;2.65;;
17494;SDS011;8864;51.970;4.614;2023-03-12T09:11:29;5.40;;;2.83;;
17494;SDS011;8864;51.970;4.614;2023-03-12T09:13:56;5.13;;;2.80;;
17494;SDS011;8864;51.970;4.614;2023-03-12T09:16:23;9.00;;;2.88;;
17494;SDS011;8864;51.970;4.614;2023-03-12T09:18:51;5.35;;;3.10;;
17494;SDS011;8864;51.970;4.614;2023-03-12T09:21:19;5.15;;;2.60;;
17494;SDS011;8864;51.970;4.614;2023-03-12T09:23:47;4.03;;;2.65;;
17494;SDS011;8864;51.970;4.614;2023-03-12T09:26:13;5.25;;;2.80;;
17494;SDS011;8864;51.970;4.614;2023-03-12T09:28:40;7.75;;;2.65;;
17494;SDS011;8864;51.970;4.614;2023-03-12T09:31:09;17.67;;;4.80;;
17494;SDS011;8864;51.970;4.614;2023-03-12T09:33:36;200.60;;;30.00;;
17494;SDS011;8864;51.970;4.614;2023-03-12T09:36:04;118.50;;;18.95;;
17494;SDS011;8864;51.970;4.614;2023-03-12T09:38:33;100.65;;;17.35;;
17494;SDS011;8864;51.970;4.614;2023-03-12T09:41:02;100.18;;;14.88;;
17494;SDS011;8864;51.970;4.614;2023-03-12T09:43:32;79.80;;;15.82;;
17494;SDS011;8864;51.970;4.614;2023-03-12T09:46:07;75.50;;;15.73;;
17494;SDS011;8864;51.970;4.614;2023-03-12T09:48:39;74.05;;;14.95;;
17494;SDS011;8864;51.970;4.614;2023-03-12T09:51:08;74.80;;;13.10;;
17494;SDS011;8864;51.970;4.614;2023-03-12T09:53:44;72.43;;;13.65;;
17494;SDS011;8864;51.970;4.614;2023-03-12T09:56:17;66.53;;;12.70;;
17494;SDS011;8864;51.970;4.614;2023-03-12T09:58:46;60.33;;;12.40;;
17494;SDS011;8864;51.970;4.614;2023-03-12T10:01:20;57.70;;;11.82;;
17494;SDS011;8864;51.970;4.614;2023-03-12T10:03:55;57.55;;;11.07;;
17494;SDS011;8864;51.970;4.614;2023-03-12T10:06:32;46.13;;;9.55;;
17494;SDS011;8864;51.970;4.614;2023-03-12T10:09:15;50.05;;;10.20;;
17494;SDS011;8864;51.970;4.614;2023-03-12T10:11:53;53.60;;;10.43;;
17494;SDS011;8864;51.970;4.614;2023-03-12T10:14:29;39.53;;;9.23;;
17494;SDS011;8864;51.970;4.614;2023-03-12T10:17:10;35.47;;;8.30;;
17494;SDS011;8864;51.970;4.614;2023-03-12T10:19:51;37.25;;;7.82;;
17494;SDS011;8864;51.970;4.614;2023-03-12T10:22:35;34.72;;;7.88;;
17494;SDS011;8864;51.970;4.614;2023-03-12T10:25:14;39.03;;;7.18;;
17494;SDS011;8864;51.970;4.614;2023-03-12T10:27:47;32.15;;;6.97;;
17494;SDS011;8864;51.970;4.614;2023-03-12T10:30:16;36.65;;;8.05;;
17494;SDS011;8864;51.970;4.614;2023-03-12T10:32:48;32.78;;;8.02;;
17494;SDS011;8864;51.970;4.614;2023-03-12T10:35:18;32.08;;;7.82;;
17494;SDS011;8864;51.970;4.614;2023-03-12T10:37:47;28.85;;;7.13;;
17494;SDS011;8864;51.970;4.614;2023-03-12T10:40:18;31.30;;;7.07;;
17494;SDS011;8864;51.970;4.614;2023-03-12T10:42:47;24.65;;;6.40;;
17494;SDS011;8864;51.970;4.614;2023-03-12T10:45:26;26.05;;;6.28;;
17494;SDS011;8864;51.970;4.614;2023-03-12T10:47:57;25.60;;;6.07;;
17494;SDS011;8864;51.970;4.614;2023-03-12T10:50:28;27.17;;;5.88;;
17494;SDS011;8864;51.970;4.614;2023-03-12T10:53:11;25.02;;;6.15;;
17494;SDS011;8864;51.970;4.614;2023-03-12T10:56:00;22.48;;;6.35;;
17494;SDS011;8864;51.970;4.614;2023-03-12T10:58:34;21.67;;;5.82;;
17494;SDS011;8864;51.970;4.614;2023-03-12T11:01:03;19.85;;;5.45;;
17494;SDS011;8864;51.970;4.614;2023-03-12T11:03:32;24.75;;;5.78;;
17494;SDS011;8864;51.970;4.614;2023-03-12T11:05:59;22.95;;;5.57;;
17494;SDS011;8864;51.970;4.614;2023-03-12T11:08:28;17.83;;;5.43;;
17494;SDS011;8864;51.970;4.614;2023-03-12T11:10:57;25.25;;;5.22;;
17494;SDS011;8864;51.970;4.614;2023-03-12T11:13:28;24.67;;;5.78;;
17494;SDS011;8864;51.970;4.614;2023-03-12T11:15:57;16.60;;;4.45;;
17494;SDS011;8864;51.970;4.614;2023-03-12T11:18:27;17.25;;;4.75;;
17494;SDS011;8864;51.970;4.614;2023-03-12T11:21:12;17.35;;;5.13;;
17494;SDS011;8864;51.970;4.614;2023-03-12T11:23:41;13.75;;;4.93;;
17494;SDS011;8864;51.970;4.614;2023-03-12T11:26:15;19.95;;;5.00;;
17494;SDS011;8864;51.970;4.614;2023-03-12T11:28:45;17.98;;;4.95;;
17494;SDS011;8864;51.970;4.614;2023-03-12T11:31:16;16.95;;;4.82;;
17494;SDS011;8864;51.970;4.614;2023-03-12T11:33:48;16.65;;;4.57;;
17494;SDS011;8864;51.970;4.614;2023-03-12T11:36:21;11.75;;;3.70;;
17494;SDS011;8864;51.970;4.614;2023-03-12T11:39:03;16.48;;;3.78;;
17494;SDS011;8864;51.970;4.614;2023-03-12T11:41:46;18.17;;;4.43;;
17494;SDS011;8864;51.970;4.614;2023-03-12T11:44:25;15.77;;;4.78;;
17494;SDS011;8864;51.970;4.614;2023-03-12T11:47:04;13.65;;;3.90;;
17494;SDS011;8864;51.970;4.614;2023-03-12T11:52:45;12.30;;;4.05;;
17494;SDS011;8864;51.970;4.614;2023-03-12T11:55:36;16.52;;;4.13;;
17494;SDS011;8864;51.970;4.614;2023-03-12T12:01:10;11.88;;;3.45;;
17494;SDS011;8864;51.970;4.614;2023-03-12T12:07:11;14.30;;;3.65;;
17494;SDS011;8864;51.970;4.614;2023-03-12T12:09:46;17.05;;;3.75;;
17494;SDS011;8864;51.970;4.614;2023-03-12T12:12:20;19.88;;;4.10;;
17494;SDS011;8864;51.970;4.614;2023-03-12T12:15:02;12.18;;;3.38;;
17494;SDS011;8864;51.970;4.614;2023-03-12T12:17:45;12.93;;;4.15;;
17494;SDS011;8864;51.970;4.614;2023-03-12T12:20:25;12.00;;;3.53;;
17494;SDS011;8864;51.970;4.614;2023-03-12T12:23:00;13.38;;;3.58;;
17494;SDS011;8864;51.970;4.614;2023-03-12T12:31:28;10.43;;;3.00;;
17494;SDS011;8864;51.970;4.614;2023-03-12T12:34:08;12.45;;;3.13;;
17494;SDS011;8864;51.970;4.614;2023-03-12T12:36:55;12.23;;;3.08;;
17494;SDS011;8864;51.970;4.614;2023-03-12T12:39:29;12.35;;;3.20;;
17494;SDS011;8864;51.970;4.614;2023-03-12T12:42:01;11.60;;;3.08;;
17494;SDS011;8864;51.970;4.614;2023-03-12T12:44:31;11.10;;;3.47;;
17494;SDS011;8864;51.970;4.614;2023-03-12T12:47:02;8.95;;;3.03;;
17494;SDS011;8864;51.970;4.614;2023-03-12T12:49:35;8.75;;;2.85;;
17494;SDS011;8864;51.970;4.614;2023-03-12T12:52:10;12.63;;;3.33;;
17494;SDS011;8864;51.970;4.614;2023-03-12T12:54:41;11.32;;;3.38;;
17494;SDS011;8864;51.970;4.614;2023-03-12T12:57:17;12.40;;;3.17;;
17494;SDS011;8864;51.970;4.614;2023-03-12T12:59:50;10.63;;;3.10;;
17494;SDS011;8864;51.970;4.614;2023-03-12T13:02:31;9.13;;;2.47;;
17494;SDS011;8864;51.970;4.614;2023-03-12T13:05:12;9.75;;;2.97;;
17494;SDS011;8864;51.970;4.614;2023-03-12T13:07:44;7.18;;;2.28;;
17494;SDS011;8864;51.970;4.614;2023-03-12T13:13:10;12.32;;;2.80;;
17494;SDS011;8864;51.970;4.614;2023-03-12T13:15:43;11.15;;;2.90;;
17494;SDS011;8864;51.970;4.614;2023-03-12T13:18:17;11.70;;;2.60;;
17494;SDS011;8864;51.970;4.614;2023-03-12T13:21:04;6.90;;;2.40;;
17494;SDS011;8864;51.970;4.614;2023-03-12T13:23:40;7.43;;;2.80;;
17494;SDS011;8864;51.970;4.614;2023-03-12T13:26:17;12.50;;;3.22;;
17494;SDS011;8864;51.970;4.614;2023-03-12T13:28:56;13.63;;;2.78;;
17494;SDS011;8864;51.970;4.614;2023-03-12T13:31:36;13.25;;;2.83;;
17494;SDS011;8864;51.970;4.614;2023-03-12T13:34:25;8.27;;;2.22;;
17494;SDS011;8864;51.970;4.614;2023-03-12T13:36:57;8.90;;;2.55;;
17494;SDS011;8864;51.970;4.614;2023-03-12T13:39:27;8.98;;;2.83;;
17494;SDS011;8864;51.970;4.614;2023-03-12T13:41:56;11.30;;;2.40;;
17494;SDS011;8864;51.970;4.614;2023-03-12T13:44:29;9.27;;;2.28;;
17494;SDS011;8864;51.970;4.614;2023-03-12T13:47:03;7.78;;;2.63;;
17494;SDS011;8864;51.970;4.614;2023-03-12T13:49:43;9.82;;;2.95;;
17494;SDS011;8864;51.970;4.614;2023-03-12T13:52:18;9.45;;;2.75;;
17494;SDS011;8864;51.970;4.614;2023-03-12T13:54:48;8.85;;;2.47;;
17494;SDS011;8864;51.970;4.614;2023-03-12T13:57:24;7.35;;;2.33;;
17494;SDS011;8864;51.970;4.614;2023-03-12T13:59:57;9.20;;;2.70;;
17494;SDS011;8864;51.970;4.614;2023-03-12T14:02:26;9.68;;;2.42;;
17494;SDS011;8864;51.970;4.614;2023-03-12T14:05:00;7.57;;;2.30;;
17494;SDS011;8864;51.970;4.614;2023-03-12T14:07:35;11.48;;;2.33;;
17494;SDS011;8864;51.970;4.614;2023-03-12T14:10:27;10.02;;;2.42;;
17494;SDS011;8864;51.970;4.614;2023-03-12T14:13:04;9.25;;;2.20;;
17494;SDS011;8864;51.970;4.614;2023-03-12T14:15:43;8.15;;;2.50;;
17494;SDS011;8864;51.970;4.614;2023-03-12T14:18:17;7.13;;;1.98;;
17494;SDS011;8864;51.970;4.614;2023-03-12T14:20:50;8.82;;;2.20;;
17494;SDS011;8864;51.970;4.614;2023-03-12T14:23:21;9.27;;;2.78;;
17494;SDS011;8864;51.970;4.614;2023-03-12T14:25:54;10.55;;;2.47;;
17494;SDS011;8864;51.970;4.614;2023-03-12T14:28:24;8.93;;;2.60;;
17494;SDS011;8864;51.970;4.614;2023-03-12T14:30:55;10.30;;;2.53;;
17494;SDS011;8864;51.970;4.614;2023-03-12T14:33:26;8.25;;;1.95;;
17494;SDS011;8864;51.970;4.614;2023-03-12T14:36:00;8.27;;;2.45;;
17494;SDS011;8864;51.970;4.614;2023-03-12T14:38:33;10.45;;;2.50;;
17494;SDS011;8864;51.970;4.614;2023-03-12T14:41:03;11.15;;;2.45;;
17494;SDS011;8864;51.970;4.614;2023-03-12T14:43:37;10.85;;;2.78;;
17494;SDS011;8864;51.970;4.614;2023-03-12T14:46:05;11.73;;;2.63;;
17494;SDS011;8864;51.970;4.614;2023-03-12T14:48:39;8.88;;;2.20;;
17494;SDS011;8864;51.970;4.614;2023-03-12T14:51:06;10.27;;;2.50;;
17494;SDS011;8864;51.970;4.614;2023-03-12T14:53:35;9.20;;;2.15;;
17494;SDS011;8864;51.970;4.614;2023-03-12T14:56:04;7.88;;;2.03;;
17494;SDS011;8864;51.970;4.614;2023-03-12T14:58:34;9.23;;;2.63;;
17494;SDS011;8864;51.970;4.614;2023-03-12T15:01:11;6.18;;;2.25;;
17494;SDS011;8864;51.970;4.614;2023-03-12T15:03:41;8.13;;;2.45;;
17494;SDS011;8864;51.970;4.614;2023-03-12T15:06:13;6.40;;;2.15;;
17494;SDS011;8864;51.970;4.614;2023-03-12T15:08:44;6.18;;;2.13;;
17494;SDS011;8864;51.970;4.614;2023-03-12T15:11:13;10.23;;;2.55;;
17494;SDS011;8864;51.970;4.614;2023-03-12T15:13:46;7.85;;;2.47;;
17494;SDS011;8864;51.970;4.614;2023-03-12T15:16:14;10.52;;;2.20;;
17494;SDS011;8864;51.970;4.614;2023-03-12T15:18:42;6.93;;;1.95;;
17494;SDS011;8864;51.970;4.614;2023-03-12T15:21:10;9.48;;;2.08;;
17494;SDS011;8864;51.970;4.614;2023-03-12T15:23:37;8.15;;;2.45;;
17494;SDS011;8864;51.970;4.614;2023-03-12T15:26:11;6.75;;;2.22;;
17494;SDS011;8864;51.970;4.614;2023-03-12T15:28:44;12.20;;;2.53;;
17494;SDS011;8864;51.970;4.614;2023-03-12T15:31:20;6.47;;;1.80;;
17494;SDS011;8864;51.970;4.614;2023-03-12T15:33:58;9.20;;;1.98;;